sensor_id;sensor_type;location;lat;lon;timestamp;temperature;humidity
75621;DHT22;64574;48.506;-2.750;2023-06-22T00:00:51;18.10;76.60
75621;DHT22;64574;48.506;-2.750;2023-06-22T00:03:21;18.10;76.70
75621;DHT22;64574;48.506;-2.750;2023-06-22T00:05:48;18.10;76.70
75621;DHT22;64574;48.506;-2.750;2023-06-22T00:08:14;18.10;76.50
75621;DHT22;64574;48.506;-2.750;2023-06-22T00:10:40;18.10;76.50
75621;DHT22;64574;48.506;-2.750;2023-06-22T00:13:07;18.00;76.80
75621;DHT22;64574;48.506;-2.750;2023-06-22T00:15:33;18.00;77.10
75621;DHT22;64574;48.506;-2.750;2023-06-22T00:17:59;17.90;77.20
75621;DHT22;64574;48.506;-2.750;2023-06-22T00:20:25;17.80;77.90
75621;DHT22;64574;48.506;-2.750;2023-06-22T00:22:55;17.80;78.00
75621;DHT22;64574;48.506;-2.750;2023-06-22T00:25:21;17.80;78.00
75621;DHT22;64574;48.506;-2.750;2023-06-22T00:27:47;17.80;78.10
75621;DHT22;64574;48.506;-2.750;2023-06-22T00:30:13;17.80;78.00
75621;DHT22;64574;48.506;-2.750;2023-06-22T00:32:39;17.60;78.20
75621;DHT22;64574;48.506;-2.750;2023-06-22T00:35:05;17.60;78.40
75621;DHT22;64574;48.506;-2.750;2023-06-22T00:37:30;17.60;78.40
75621;DHT22;64574;48.506;-2.750;2023-06-22T00:39:56;17.70;78.40
75621;DHT22;64574;48.506;-2.750;2023-06-22T00:42:22;17.80;78.10
75621;DHT22;64574;48.506;-2.750;2023-06-22T00:44:48;17.60;78.20
75621;DHT22;64574;48.506;-2.750;2023-06-22T00:47:16;17.60;78.40
75621;DHT22;64574;48.506;-2.750;2023-06-22T00:49:43;17.80;78.40
75621;DHT22;64574;48.506;-2.750;2023-06-22T00:52:09;17.80;78.00
75621;DHT22;64574;48.506;-2.750;2023-06-22T00:54:42;17.90;77.60
75621;DHT22;64574;48.506;-2.750;2023-06-22T00:57:12;18.00;77.20
75621;DHT22;64574;48.506;-2.750;2023-06-22T00:59:42;18.00;77.40
75621;DHT22;64574;48.506;-2.750;2023-06-22T01:02:09;18.00;77.20
75621;DHT22;64574;48.506;-2.750;2023-06-22T01:04:36;17.80;77.60
75621;DHT22;64574;48.506;-2.750;2023-06-22T01:07:21;17.70;78.20
75621;DHT22;64574;48.506;-2.750;2023-06-22T01:10:07;17.60;78.20
75621;DHT22;64574;48.506;-2.750;2023-06-22T01:12:41;17.60;78.30
75621;DHT22;64574;48.506;-2.750;2023-06-22T01:15:13;17.50;78.60
75621;DHT22;64574;48.506;-2.750;2023-06-22T01:17:41;17.50;78.90
75621;DHT22;64574;48.506;-2.750;2023-06-22T01:20:09;17.40;79.20
75621;DHT22;64574;48.506;-2.750;2023-06-22T01:22:56;17.40;79.20
75621;DHT22;64574;48.506;-2.750;2023-06-22T01:28:23;17.20;79.50
75621;DHT22;64574;48.506;-2.750;2023-06-22T01:30:49;17.20;79.60
75621;DHT22;64574;48.506;-2.750;2023-06-22T01:33:29;17.20;80.00
75621;DHT22;64574;48.506;-2.750;2023-06-22T01:35:55;17.20;79.70
75621;DHT22;64574;48.506;-2.750;2023-06-22T01:38:21;17.40;79.00
75621;DHT22;64574;48.506;-2.750;2023-06-22T01:40:48;17.40;79.10
75621;DHT22;64574;48.506;-2.750;2023-06-22T01:43:15;17.30;79.00
75621;DHT22;64574;48.506;-2.750;2023-06-22T01:45:41;17.20;79.70
75621;DHT22;64574;48.506;-2.750;2023-06-22T01:48:09;17.20;79.70
75621;DHT22;64574;48.506;-2.750;2023-06-22T01:50:35;17.20;79.70
75621;DHT22;64574;48.506;-2.750;2023-06-22T01:53:00;17.30;79.70
75621;DHT22;64574;48.506;-2.750;2023-06-22T01:55:26;17.30;79.70
75621;DHT22;64574;48.506;-2.750;2023-06-22T01:57:51;17.40;79.60
75621;DHT22;64574;48.506;-2.750;2023-06-22T02:00:21;17.40;79.70
75621;DHT22;64574;48.506;-2.750;2023-06-22T02:02:54;17.50;79.40
75621;DHT22;64574;48.506;-2.750;2023-06-22T02:05:23;17.50;79.30
75621;DHT22;64574;48.506;-2.750;2023-06-22T02:08:10;17.50;79.10
75621;DHT22;64574;48.506;-2.750;2023-06-22T02:10:38;17.40;79.60
75621;DHT22;64574;48.506;-2.750;2023-06-22T02:13:08;17.40;79.70
75621;DHT22;64574;48.506;-2.750;2023-06-22T02:15:34;17.20;80.00
75621;DHT22;64574;48.506;-2.750;2023-06-22T02:18:00;17.20;80.30
75621;DHT22;64574;48.506;-2.750;2023-06-22T02:20:26;17.20;80.20
75621;DHT22;64574;48.506;-2.750;2023-06-22T02:22:52;17.20;80.20
75621;DHT22;64574;48.506;-2.750;2023-06-22T02:25:18;17.20;80.10
75621;DHT22;64574;48.506;-2.750;2023-06-22T02:27:44;17.10;80.20
75621;DHT22;64574;48.506;-2.750;2023-06-22T02:30:11;17.20;80.30
75621;DHT22;64574;48.506;-2.750;2023-06-22T02:32:37;17.20;79.90
75621;DHT22;64574;48.506;-2.750;2023-06-22T02:35:03;17.10;80.30
75621;DHT22;64574;48.506;-2.750;2023-06-22T02:37:32;17.00;80.40
75621;DHT22;64574;48.506;-2.750;2023-06-22T02:39:57;17.00;80.70
75621;DHT22;64574;48.506;-2.750;2023-06-22T02:42:23;17.00;80.50
75621;DHT22;64574;48.506;-2.750;2023-06-22T02:44:49;17.00;80.60
75621;DHT22;64574;48.506;-2.750;2023-06-22T02:47:15;16.90;80.70
75621;DHT22;64574;48.506;-2.750;2023-06-22T02:49:41;16.90;81.20
75621;DHT22;64574;48.506;-2.750;2023-06-22T02:52:07;17.00;80.90
75621;DHT22;64574;48.506;-2.750;2023-06-22T02:54:33;17.10;80.70
75621;DHT22;64574;48.506;-2.750;2023-06-22T02:56:59;17.00;80.20
75621;DHT22;64574;48.506;-2.750;2023-06-22T02:59:28;16.90;80.80
75621;DHT22;64574;48.506;-2.750;2023-06-22T03:01:53;17.00;80.90
75621;DHT22;64574;48.506;-2.750;2023-06-22T03:04:19;16.90;80.70
75621;DHT22;64574;48.506;-2.750;2023-06-22T03:06:45;16.90;80.90
75621;DHT22;64574;48.506;-2.750;2023-06-22T03:09:16;17.00;80.80
75621;DHT22;64574;48.506;-2.750;2023-06-22T03:11:43;17.00;80.60
75621;DHT22;64574;48.506;-2.750;2023-06-22T03:14:08;17.00;80.70
75621;DHT22;64574;48.506;-2.750;2023-06-22T03:16:34;17.00;80.70
75621;DHT22;64574;48.506;-2.750;2023-06-22T03:19:00;17.00;80.80
75621;DHT22;64574;48.506;-2.750;2023-06-22T03:21:28;17.10;80.30
75621;DHT22;64574;48.506;-2.750;2023-06-22T03:23:53;17.10;80.20
75621;DHT22;64574;48.506;-2.750;2023-06-22T03:26:19;17.00;80.60
75621;DHT22;64574;48.506;-2.750;2023-06-22T03:28:46;17.00;80.50
75621;DHT22;64574;48.506;-2.750;2023-06-22T03:31:11;16.90;80.80
75621;DHT22;64574;48.506;-2.750;2023-06-22T03:33:37;16.90;80.80
75621;DHT22;64574;48.506;-2.750;2023-06-22T03:36:03;17.00;80.80
75621;DHT22;64574;48.506;-2.750;2023-06-22T03:38:28;17.00;80.40
75621;DHT22;64574;48.506;-2.750;2023-06-22T03:40:54;16.90;81.00
75621;DHT22;64574;48.506;-2.750;2023-06-22T03:43:19;17.00;80.80
75621;DHT22;64574;48.506;-2.750;2023-06-22T03:45:45;17.10;80.20
75621;DHT22;64574;48.506;-2.750;2023-06-22T03:48:12;17.00;80.40
75621;DHT22;64574;48.506;-2.750;2023-06-22T03:50:37;17.20;80.10
75621;DHT22;64574;48.506;-2.750;2023-06-22T03:53:03;17.20;79.80
75621;DHT22;64574;48.506;-2.750;2023-06-22T03:55:29;17.30;79.60
75621;DHT22;64574;48.506;-2.750;2023-06-22T03:57:54;17.00;80.00
75621;DHT22;64574;48.506;-2.750;2023-06-22T04:00:25;17.10;80.30
75621;DHT22;64574;48.506;-2.750;2023-06-22T04:02:50;17.00;80.10
75621;DHT22;64574;48.506;-2.750;2023-06-22T04:05:16;17.00;80.40
75621;DHT22;64574;48.506;-2.750;2023-06-22T04:07:45;17.10;80.10
75621;DHT22;64574;48.506;-2.750;2023-06-22T04:10:11;17.10;79.90
75621;DHT22;64574;48.506;-2.750;2023-06-22T04:12:36;17.00;80.10
75621;DHT22;64574;48.506;-2.750;2023-06-22T04:15:02;17.00;80.40
75621;DHT22;64574;48.506;-2.750;2023-06-22T04:17:28;17.00;80.20
75621;DHT22;64574;48.506;-2.750;2023-06-22T04:19:53;17.00;80.50
75621;DHT22;64574;48.506;-2.750;2023-06-22T04:22:19;17.20;79.80
75621;DHT22;64574;48.506;-2.750;2023-06-22T04:24:45;17.10;80.00
75621;DHT22;64574;48.506;-2.750;2023-06-22T04:27:10;17.00;79.90
75621;DHT22;64574;48.506;-2.750;2023-06-22T04:29:36;17.00;80.00
75621;DHT22;64574;48.506;-2.750;2023-06-22T04:32:04;17.10;79.60
75621;DHT22;64574;48.506;-2.750;2023-06-22T04:34:30;17.00;79.80
75621;DHT22;64574;48.506;-2.750;2023-06-22T04:36:56;17.00;79.90
75621;DHT22;64574;48.506;-2.750;2023-06-22T04:39:22;17.00;80.20
75621;DHT22;64574;48.506;-2.750;2023-06-22T04:41:49;16.90;80.10
75621;DHT22;64574;48.506;-2.750;2023-06-22T04:44:17;16.90;80.30
75621;DHT22;64574;48.506;-2.750;2023-06-22T04:46:58;16.80;80.40
75621;DHT22;64574;48.506;-2.750;2023-06-22T04:49:29;16.90;80.50
75621;DHT22;64574;48.506;-2.750;2023-06-22T04:52:06;17.00;80.10
75621;DHT22;64574;48.506;-2.750;2023-06-22T04:54:32;17.20;79.60
75621;DHT22;64574;48.506;-2.750;2023-06-22T04:57:02;17.00;79.40
75621;DHT22;64574;48.506;-2.750;2023-06-22T04:59:29;17.00;79.70
75621;DHT22;64574;48.506;-2.750;2023-06-22T05:01:56;17.10;79.60
75621;DHT22;64574;48.506;-2.750;2023-06-22T05:04:22;17.00;79.50
75621;DHT22;64574;48.506;-2.750;2023-06-22T05:06:54;17.00;79.70
75621;DHT22;64574;48.506;-2.750;2023-06-22T05:09:21;17.20;79.30
75621;DHT22;64574;48.506;-2.750;2023-06-22T05:11:47;17.20;79.00
75621;DHT22;64574;48.506;-2.750;2023-06-22T05:14:13;17.10;79.20
75621;DHT22;64574;48.506;-2.750;2023-06-22T05:16:41;17.00;79.40
75621;DHT22;64574;48.506;-2.750;2023-06-22T05:19:07;17.00;79.90
75621;DHT22;64574;48.506;-2.750;2023-06-22T05:21:33;17.00;79.60
75621;DHT22;64574;48.506;-2.750;2023-06-22T05:23:59;17.00;79.60
75621;DHT22;64574;48.506;-2.750;2023-06-22T05:26:29;17.10;79.40
75621;DHT22;64574;48.506;-2.750;2023-06-22T05:28:55;17.00;79.40
75621;DHT22;64574;48.506;-2.750;2023-06-22T05:31:21;17.00;79.80
75621;DHT22;64574;48.506;-2.750;2023-06-22T05:33:48;17.20;79.30
75621;DHT22;64574;48.506;-2.750;2023-06-22T05:36:15;17.20;79.00
75621;DHT22;64574;48.506;-2.750;2023-06-22T05:38:41;17.20;78.60
75621;DHT22;64574;48.506;-2.750;2023-06-22T05:41:07;17.20;78.90
75621;DHT22;64574;48.506;-2.750;2023-06-22T05:43:33;17.20;79.00
75621;DHT22;64574;48.506;-2.750;2023-06-22T05:46:00;17.10;79.20
75621;DHT22;64574;48.506;-2.750;2023-06-22T05:48:26;17.20;79.00
75621;DHT22;64574;48.506;-2.750;2023-06-22T05:50:53;17.20;78.80
75621;DHT22;64574;48.506;-2.750;2023-06-22T05:53:19;17.20;78.70
75621;DHT22;64574;48.506;-2.750;2023-06-22T05:55:45;17.00;79.10
75621;DHT22;64574;48.506;-2.750;2023-06-22T05:58:11;17.40;78.80
75621;DHT22;64574;48.506;-2.750;2023-06-22T06:00:38;17.20;78.10
75621;DHT22;64574;48.506;-2.750;2023-06-22T06:03:04;17.20;78.50
75621;DHT22;64574;48.506;-2.750;2023-06-22T06:05:30;17.20;78.40
75621;DHT22;64574;48.506;-2.750;2023-06-22T06:07:56;17.20;78.40
75621;DHT22;64574;48.506;-2.750;2023-06-22T06:10:22;17.10;78.00
75621;DHT22;64574;48.506;-2.750;2023-06-22T06:12:48;17.20;78.50
75621;DHT22;64574;48.506;-2.750;2023-06-22T06:15:13;17.40;77.60
75621;DHT22;64574;48.506;-2.750;2023-06-22T06:17:49;17.50;77.60
75621;DHT22;64574;48.506;-2.750;2023-06-22T06:20:17;17.50;77.20
75621;DHT22;64574;48.506;-2.750;2023-06-22T06:22:43;17.40;77.30
75621;DHT22;64574;48.506;-2.750;2023-06-22T06:25:09;17.60;77.20
75621;DHT22;64574;48.506;-2.750;2023-06-22T06:27:35;17.50;76.20
75621;DHT22;64574;48.506;-2.750;2023-06-22T06:30:00;17.50;76.70
75621;DHT22;64574;48.506;-2.750;2023-06-22T06:32:27;17.60;76.20
75621;DHT22;64574;48.506;-2.750;2023-06-22T06:34:52;17.60;76.30
75621;DHT22;64574;48.506;-2.750;2023-06-22T06:37:18;17.80;76.10
75621;DHT22;64574;48.506;-2.750;2023-06-22T06:39:44;17.80;75.40
75621;DHT22;64574;48.506;-2.750;2023-06-22T06:42:10;17.70;75.70
75621;DHT22;64574;48.506;-2.750;2023-06-22T06:44:36;17.80;75.80
75621;DHT22;64574;48.506;-2.750;2023-06-22T06:47:04;18.10;75.00
75621;DHT22;64574;48.506;-2.750;2023-06-22T06:49:30;18.20;74.40
75621;DHT22;64574;48.506;-2.750;2023-06-22T06:51:55;18.20;74.30
75621;DHT22;64574;48.506;-2.750;2023-06-22T06:54:21;18.30;73.70
75621;DHT22;64574;48.506;-2.750;2023-06-22T06:56:47;18.10;74.10
75621;DHT22;64574;48.506;-2.750;2023-06-22T06:59:16;18.20;73.50
75621;DHT22;64574;48.506;-2.750;2023-06-22T07:01:42;18.20;73.60
75621;DHT22;64574;48.506;-2.750;2023-06-22T07:04:09;18.30;72.50
75621;DHT22;64574;48.506;-2.750;2023-06-22T07:06:35;18.30;73.00
75621;DHT22;64574;48.506;-2.750;2023-06-22T07:09:01;18.50;72.60
75621;DHT22;64574;48.506;-2.750;2023-06-22T07:11:27;18.30;73.20
75621;DHT22;64574;48.506;-2.750;2023-06-22T07:13:52;18.20;73.20
75621;DHT22;64574;48.506;-2.750;2023-06-22T07:16:18;18.10;73.70
75621;DHT22;64574;48.506;-2.750;2023-06-22T07:18:43;18.40;73.10
75621;DHT22;64574;48.506;-2.750;2023-06-22T07:21:09;18.60;72.00
75621;DHT22;64574;48.506;-2.750;2023-06-22T07:23:35;18.30;72.30
75621;DHT22;64574;48.506;-2.750;2023-06-22T07:26:00;18.40;72.60
75621;DHT22;64574;48.506;-2.750;2023-06-22T07:28:31;18.60;72.30
75621;DHT22;64574;48.506;-2.750;2023-06-22T07:31:02;18.80;71.40
75621;DHT22;64574;48.506;-2.750;2023-06-22T07:33:28;18.70;71.50
75621;DHT22;64574;48.506;-2.750;2023-06-22T07:35:54;18.40;72.20
75621;DHT22;64574;48.506;-2.750;2023-06-22T07:38:19;18.30;72.50
75621;DHT22;64574;48.506;-2.750;2023-06-22T07:40:45;18.40;72.40
75621;DHT22;64574;48.506;-2.750;2023-06-22T07:43:11;18.30;72.40
75621;DHT22;64574;48.506;-2.750;2023-06-22T07:45:38;18.40;72.40
75621;DHT22;64574;48.506;-2.750;2023-06-22T07:48:05;18.60;72.70
75621;DHT22;64574;48.506;-2.750;2023-06-22T07:50:31;18.80;71.80
75621;DHT22;64574;48.506;-2.750;2023-06-22T07:52:56;19.00;71.50
75621;DHT22;64574;48.506;-2.750;2023-06-22T07:55:22;19.10;71.50
75621;DHT22;64574;48.506;-2.750;2023-06-22T07:57:49;19.20;71.20
75621;DHT22;64574;48.506;-2.750;2023-06-22T08:00:17;19.10;70.70
75621;DHT22;64574;48.506;-2.750;2023-06-22T08:02:45;19.20;70.50
75621;DHT22;64574;48.506;-2.750;2023-06-22T08:05:11;19.40;70.00
75621;DHT22;64574;48.506;-2.750;2023-06-22T08:07:37;19.50;69.70
75621;DHT22;64574;48.506;-2.750;2023-06-22T08:10:09;19.40;69.50
75621;DHT22;64574;48.506;-2.750;2023-06-22T08:12:35;19.30;70.00
75621;DHT22;64574;48.506;-2.750;2023-06-22T08:15:01;19.40;69.50
75621;DHT22;64574;48.506;-2.750;2023-06-22T08:17:26;19.20;69.70
75621;DHT22;64574;48.506;-2.750;2023-06-22T08:19:52;18.90;69.90
75621;DHT22;64574;48.506;-2.750;2023-06-22T08:22:17;18.80;70.50
75621;DHT22;64574;48.506;-2.750;2023-06-22T08:24:44;18.90;70.20
75621;DHT22;64574;48.506;-2.750;2023-06-22T08:27:10;18.90;70.00
75621;DHT22;64574;48.506;-2.750;2023-06-22T08:29:40;18.70;70.10
75621;DHT22;64574;48.506;-2.750;2023-06-22T08:32:11;18.60;70.50
75621;DHT22;64574;48.506;-2.750;2023-06-22T08:34:37;18.70;71.00
75621;DHT22;64574;48.506;-2.750;2023-06-22T08:37:10;18.80;70.70
75621;DHT22;64574;48.506;-2.750;2023-06-22T08:39:36;19.00;69.50
75621;DHT22;64574;48.506;-2.750;2023-06-22T08:42:02;19.00;69.10
75621;DHT22;64574;48.506;-2.750;2023-06-22T08:44:28;18.90;69.80
75621;DHT22;64574;48.506;-2.750;2023-06-22T08:46:53;19.00;69.00
75621;DHT22;64574;48.506;-2.750;2023-06-22T08:49:19;19.40;68.60
75621;DHT22;64574;48.506;-2.750;2023-06-22T08:51:45;19.80;68.40
75621;DHT22;64574;48.506;-2.750;2023-06-22T08:54:13;20.10;67.90
75621;DHT22;64574;48.506;-2.750;2023-06-22T08:56:39;20.00;68.40
75621;DHT22;64574;48.506;-2.750;2023-06-22T08:59:04;19.90;68.90
75621;DHT22;64574;48.506;-2.750;2023-06-22T09:01:33;19.70;69.10
75621;DHT22;64574;48.506;-2.750;2023-06-22T09:03:58;19.60;69.20
75621;DHT22;64574;48.506;-2.750;2023-06-22T09:06:25;20.00;69.40
75621;DHT22;64574;48.506;-2.750;2023-06-22T09:08:51;20.40;68.60
75621;DHT22;64574;48.506;-2.750;2023-06-22T09:11:16;20.50;67.40
75621;DHT22;64574;48.506;-2.750;2023-06-22T09:13:42;20.50;67.50
75621;DHT22;64574;48.506;-2.750;2023-06-22T09:16:08;20.60;67.60
75621;DHT22;64574;48.506;-2.750;2023-06-22T09:18:34;20.50;67.50
75621;DHT22;64574;48.506;-2.750;2023-06-22T09:21:00;20.30;68.20
75621;DHT22;64574;48.506;-2.750;2023-06-22T09:23:26;20.30;68.20
75621;DHT22;64574;48.506;-2.750;2023-06-22T09:25:51;20.50;68.30
75621;DHT22;64574;48.506;-2.750;2023-06-22T09:28:17;20.50;68.70
75621;DHT22;64574;48.506;-2.750;2023-06-22T09:30:43;20.60;68.40
75621;DHT22;64574;48.506;-2.750;2023-06-22T09:33:10;20.50;68.60
75621;DHT22;64574;48.506;-2.750;2023-06-22T09:35:35;20.60;67.90
75621;DHT22;64574;48.506;-2.750;2023-06-22T09:38:01;20.60;68.10
75621;DHT22;64574;48.506;-2.750;2023-06-22T09:40:26;20.60;68.20
75621;DHT22;64574;48.506;-2.750;2023-06-22T09:42:52;20.60;68.00
75621;DHT22;64574;48.506;-2.750;2023-06-22T09:45:18;20.50;68.40
75621;DHT22;64574;48.506;-2.750;2023-06-22T09:47:43;20.50;68.30
75621;DHT22;64574;48.506;-2.750;2023-06-22T09:50:09;20.50;68.20
75621;DHT22;64574;48.506;-2.750;2023-06-22T09:52:35;20.30;69.20
75621;DHT22;64574;48.506;-2.750;2023-06-22T09:55:01;20.40;69.10
75621;DHT22;64574;48.506;-2.750;2023-06-22T09:57:29;20.60;68.70
75621;DHT22;64574;48.506;-2.750;2023-06-22T09:59:55;20.60;68.10
75621;DHT22;64574;48.506;-2.750;2023-06-22T10:02:21;20.20;69.20
75621;DHT22;64574;48.506;-2.750;2023-06-22T10:04:47;20.10;69.60
75621;DHT22;64574;48.506;-2.750;2023-06-22T10:07:13;20.20;69.50
75621;DHT22;64574;48.506;-2.750;2023-06-22T10:09:39;20.10;70.10
75621;DHT22;64574;48.506;-2.750;2023-06-22T10:12:05;20.10;70.00
75621;DHT22;64574;48.506;-2.750;2023-06-22T10:14:30;20.10;70.00
75621;DHT22;64574;48.506;-2.750;2023-06-22T10:16:56;20.00;69.00
75621;DHT22;64574;48.506;-2.750;2023-06-22T10:19:22;20.10;69.70
75621;DHT22;64574;48.506;-2.750;2023-06-22T10:21:47;20.30;69.40
75621;DHT22;64574;48.506;-2.750;2023-06-22T10:24:13;20.30;70.00
75621;DHT22;64574;48.506;-2.750;2023-06-22T10:26:38;20.30;70.30
75621;DHT22;64574;48.506;-2.750;2023-06-22T10:29:04;20.30;69.70
75621;DHT22;64574;48.506;-2.750;2023-06-22T10:31:30;20.10;70.10
75621;DHT22;64574;48.506;-2.750;2023-06-22T10:33:55;20.30;68.50
75621;DHT22;64574;48.506;-2.750;2023-06-22T10:36:22;20.30;68.40
75621;DHT22;64574;48.506;-2.750;2023-06-22T10:38:48;20.50;68.00
75621;DHT22;64574;48.506;-2.750;2023-06-22T10:41:14;20.50;67.20
75621;DHT22;64574;48.506;-2.750;2023-06-22T10:43:40;20.60;67.00
75621;DHT22;64574;48.506;-2.750;2023-06-22T10:46:06;20.70;66.90
75621;DHT22;64574;48.506;-2.750;2023-06-22T10:48:32;20.70;66.70
75621;DHT22;64574;48.506;-2.750;2023-06-22T10:50:58;20.70;67.60
75621;DHT22;64574;48.506;-2.750;2023-06-22T10:53:23;20.60;67.10
75621;DHT22;64574;48.506;-2.750;2023-06-22T10:55:49;20.80;67.00
75621;DHT22;64574;48.506;-2.750;2023-06-22T10:58:15;20.80;67.00
75621;DHT22;64574;48.506;-2.750;2023-06-22T11:00:40;20.70;67.40
75621;DHT22;64574;48.506;-2.750;2023-06-22T11:03:06;20.60;67.40
75621;DHT22;64574;48.506;-2.750;2023-06-22T11:05:32;20.60;67.40
75621;DHT22;64574;48.506;-2.750;2023-06-22T11:07:57;20.70;67.70
75621;DHT22;64574;48.506;-2.750;2023-06-22T11:10:23;20.70;67.30
75621;DHT22;64574;48.506;-2.750;2023-06-22T11:12:49;20.70;66.80
75621;DHT22;64574;48.506;-2.750;2023-06-22T11:15:14;20.70;66.00
75621;DHT22;64574;48.506;-2.750;2023-06-22T11:17:40;20.70;66.10
75621;DHT22;64574;48.506;-2.750;2023-06-22T11:20:07;20.60;65.90
75621;DHT22;64574;48.506;-2.750;2023-06-22T11:22:39;20.40;66.20
75621;DHT22;64574;48.506;-2.750;2023-06-22T11:25:06;20.40;66.80
75621;DHT22;64574;48.506;-2.750;2023-06-22T11:27:32;20.50;66.10
75621;DHT22;64574;48.506;-2.750;2023-06-22T11:29:58;20.50;64.50
75621;DHT22;64574;48.506;-2.750;2023-06-22T11:32:23;20.60;65.00
75621;DHT22;64574;48.506;-2.750;2023-06-22T11:34:49;20.50;65.50
75621;DHT22;64574;48.506;-2.750;2023-06-22T11:37:15;20.50;67.00
75621;DHT22;64574;48.506;-2.750;2023-06-22T11:39:41;20.70;65.60
75621;DHT22;64574;48.506;-2.750;2023-06-22T11:42:07;20.60;65.40
75621;DHT22;64574;48.506;-2.750;2023-06-22T11:44:34;20.70;65.20
75621;DHT22;64574;48.506;-2.750;2023-06-22T11:46:59;20.70;66.80
75621;DHT22;64574;48.506;-2.750;2023-06-22T11:49:26;20.50;67.30
75621;DHT22;64574;48.506;-2.750;2023-06-22T11:51:52;20.60;67.80
75621;DHT22;64574;48.506;-2.750;2023-06-22T11:54:18;20.60;67.20
75621;DHT22;64574;48.506;-2.750;2023-06-22T11:56:44;20.70;68.20
75621;DHT22;64574;48.506;-2.750;2023-06-22T11:59:09;20.70;68.80
75621;DHT22;64574;48.506;-2.750;2023-06-22T12:01:35;20.60;68.60
75621;DHT22;64574;48.506;-2.750;2023-06-22T12:04:00;20.60;68.00
75621;DHT22;64574;48.506;-2.750;2023-06-22T12:06:26;20.80;68.70
75621;DHT22;64574;48.506;-2.750;2023-06-22T12:08:52;20.60;69.40
75621;DHT22;64574;48.506;-2.750;2023-06-22T12:11:17;20.90;69.00
75621;DHT22;64574;48.506;-2.750;2023-06-22T12:13:43;20.70;69.10
75621;DHT22;64574;48.506;-2.750;2023-06-22T12:16:09;20.70;68.70
75621;DHT22;64574;48.506;-2.750;2023-06-22T12:18:35;20.60;69.50
75621;DHT22;64574;48.506;-2.750;2023-06-22T12:21:00;20.50;69.80
75621;DHT22;64574;48.506;-2.750;2023-06-22T12:23:26;20.80;69.80
75621;DHT22;64574;48.506;-2.750;2023-06-22T12:25:52;20.80;69.00
75621;DHT22;64574;48.506;-2.750;2023-06-22T12:28:17;20.80;68.90
75621;DHT22;64574;48.506;-2.750;2023-06-22T12:30:43;20.50;68.50
75621;DHT22;64574;48.506;-2.750;2023-06-22T12:33:09;20.70;68.90
75621;DHT22;64574;48.506;-2.750;2023-06-22T12:35:34;20.90;68.10
75621;DHT22;64574;48.506;-2.750;2023-06-22T12:38:00;20.90;67.20
75621;DHT22;64574;48.506;-2.750;2023-06-22T12:40:25;21.00;65.60
75621;DHT22;64574;48.506;-2.750;2023-06-22T12:42:51;20.70;65.60
75621;DHT22;64574;48.506;-2.750;2023-06-22T12:45:17;20.80;65.80
75621;DHT22;64574;48.506;-2.750;2023-06-22T12:47:43;20.70;66.60
75621;DHT22;64574;48.506;-2.750;2023-06-22T12:50:08;20.70;66.70
75621;DHT22;64574;48.506;-2.750;2023-06-22T12:52:36;20.80;67.00
75621;DHT22;64574;48.506;-2.750;2023-06-22T12:55:04;20.90;66.80
75621;DHT22;64574;48.506;-2.750;2023-06-22T12:57:30;20.90;66.40
75621;DHT22;64574;48.506;-2.750;2023-06-22T12:59:56;21.00;66.20
75621;DHT22;64574;48.506;-2.750;2023-06-22T13:02:23;20.90;66.60
75621;DHT22;64574;48.506;-2.750;2023-06-22T13:04:49;21.00;66.40
75621;DHT22;64574;48.506;-2.750;2023-06-22T13:07:15;21.10;65.80
75621;DHT22;64574;48.506;-2.750;2023-06-22T13:09:40;21.00;66.20
75621;DHT22;64574;48.506;-2.750;2023-06-22T13:12:06;21.10;66.10
75621;DHT22;64574;48.506;-2.750;2023-06-22T13:14:32;21.10;65.60
75621;DHT22;64574;48.506;-2.750;2023-06-22T13:16:57;20.90;65.10
75621;DHT22;64574;48.506;-2.750;2023-06-22T13:19:23;20.50;66.20
75621;DHT22;64574;48.506;-2.750;2023-06-22T13:21:50;20.80;67.20
75621;DHT22;64574;48.506;-2.750;2023-06-22T13:24:15;21.10;65.90
75621;DHT22;64574;48.506;-2.750;2023-06-22T13:26:41;20.90;66.10
75621;DHT22;64574;48.506;-2.750;2023-06-22T13:29:07;21.10;66.50
75621;DHT22;64574;48.506;-2.750;2023-06-22T13:31:33;21.00;65.90
75621;DHT22;64574;48.506;-2.750;2023-06-22T13:33:58;21.00;65.40
75621;DHT22;64574;48.506;-2.750;2023-06-22T13:36:24;21.10;65.20
75621;DHT22;64574;48.506;-2.750;2023-06-22T13:38:49;21.10;64.90
75621;DHT22;64574;48.506;-2.750;2023-06-22T13:41:15;21.10;63.90
75621;DHT22;64574;48.506;-2.750;2023-06-22T13:43:41;21.10;63.70
75621;DHT22;64574;48.506;-2.750;2023-06-22T13:46:06;21.00;63.30
75621;DHT22;64574;48.506;-2.750;2023-06-22T13:48:32;21.10;62.90
75621;DHT22;64574;48.506;-2.750;2023-06-22T13:50:58;21.10;62.90
75621;DHT22;64574;48.506;-2.750;2023-06-22T13:53:24;21.00;62.70
75621;DHT22;64574;48.506;-2.750;2023-06-22T13:55:51;21.00;62.20
75621;DHT22;64574;48.506;-2.750;2023-06-22T13:58:16;21.10;63.00
75621;DHT22;64574;48.506;-2.750;2023-06-22T14:00:42;21.20;62.90
75621;DHT22;64574;48.506;-2.750;2023-06-22T14:03:08;21.40;62.30
75621;DHT22;64574;48.506;-2.750;2023-06-22T14:05:33;20.90;62.20
75621;DHT22;64574;48.506;-2.750;2023-06-22T14:07:59;21.00;63.20
75621;DHT22;64574;48.506;-2.750;2023-06-22T14:10:24;21.40;62.20
75621;DHT22;64574;48.506;-2.750;2023-06-22T14:12:50;21.30;61.40
75621;DHT22;64574;48.506;-2.750;2023-06-22T14:15:15;21.30;61.90
75621;DHT22;64574;48.506;-2.750;2023-06-22T14:17:41;21.30;61.20
75621;DHT22;64574;48.506;-2.750;2023-06-22T14:20:07;21.20;62.40
75621;DHT22;64574;48.506;-2.750;2023-06-22T14:22:33;21.40;62.50
75621;DHT22;64574;48.506;-2.750;2023-06-22T14:25:00;21.50;61.40
75621;DHT22;64574;48.506;-2.750;2023-06-22T14:27:27;21.50;60.80
75621;DHT22;64574;48.506;-2.750;2023-06-22T14:29:53;21.60;61.00
75621;DHT22;64574;48.506;-2.750;2023-06-22T14:32:18;21.50;61.20
75621;DHT22;64574;48.506;-2.750;2023-06-22T14:34:44;21.50;61.10
75621;DHT22;64574;48.506;-2.750;2023-06-22T14:37:10;21.60;61.50
75621;DHT22;64574;48.506;-2.750;2023-06-22T14:39:37;21.60;62.00
75621;DHT22;64574;48.506;-2.750;2023-06-22T14:42:03;21.70;62.10
75621;DHT22;64574;48.506;-2.750;2023-06-22T14:44:29;21.50;62.10
75621;DHT22;64574;48.506;-2.750;2023-06-22T14:46:56;21.50;62.70
75621;DHT22;64574;48.506;-2.750;2023-06-22T14:49:21;21.70;62.70
75621;DHT22;64574;48.506;-2.750;2023-06-22T14:51:47;21.70;62.20
75621;DHT22;64574;48.506;-2.750;2023-06-22T14:54:12;21.70;62.20
75621;DHT22;64574;48.506;-2.750;2023-06-22T14:56:38;21.80;62.60
75621;DHT22;64574;48.506;-2.750;2023-06-22T14:59:04;21.90;62.70
75621;DHT22;64574;48.506;-2.750;2023-06-22T15:01:29;21.90;62.90
75621;DHT22;64574;48.506;-2.750;2023-06-22T15:03:55;21.80;63.00
75621;DHT22;64574;48.506;-2.750;2023-06-22T15:06:21;21.80;63.30
75621;DHT22;64574;48.506;-2.750;2023-06-22T15:08:46;22.00;63.50
75621;DHT22;64574;48.506;-2.750;2023-06-22T15:11:12;22.00;63.30
75621;DHT22;64574;48.506;-2.750;2023-06-22T15:13:41;22.10;63.40